Time;durP1;ratioP1;P1;durP2;ratioP2;P2;SDS_P1;SDS_P2;PMS_P1;PMS_P2;Temp;Humidity;BMP_temperature;BMP_pressure;BME280_temperature;BME280_humidity;BME280_pressure;Samples;Min_cycle;Max_cycle;Signal;HPM_P1;HPM_P2
2024/01/07 00:00:18;;;;;;;22.57;14.27;;;;;;;1.87;96.36;101302.34;4974731;28;20189;-75
2024/01/07 00:02:45;;;;;;;26.70;15.37;;;;;;;1.91;96.40;101306.53;4975191;28;20193;-75
2024/01/07 00:05:11;;;;;;;20.60;14.87;;;;;;;1.84;96.26;101307.81;4974662;28;20194;-75
2024/01/07 00:07:38;;;;;;;20.77;14.03;;;;;;;1.88;96.39;101306.69;4974809;28;20222;-75
2024/01/07 00:10:05;;;;;;;21.47;14.27;;;;;;;1.89;96.36;101311.03;4974399;28;20240;-75
2024/01/07 00:12:31;;;;;;;20.27;14.33;;;;;;;1.88;96.10;101316.38;4974554;28;20200;-75
2024/01/07 00:14:58;;;;;;;20.07;13.77;;;;;;;1.88;96.29;101316.38;4975077;28;20187;-75
2024/01/07 00:17:24;;;;;;;20.90;14.20;;;;;;;1.89;96.06;101320.75;4974451;28;20210;-75
2024/01/07 00:19:52;;;;;;;25.23;15.43;;;;;;;1.87;95.96;101322.63;4974410;28;20671;-75
2024/01/07 00:22:18;;;;;;;26.70;15.23;;;;;;;1.78;95.81;101323.97;4974461;28;20595;-75
2024/01/07 00:24:44;;;;;;;20.57;14.17;;;;;;;1.72;95.74;101327.75;4974385;28;20194;-75
2024/01/07 00:27:11;;;;;;;21.57;14.73;;;;;;;1.74;96.17;101317.16;4974242;28;20226;-75
2024/01/07 00:29:39;;;;;;;23.70;14.37;;;;;;;1.75;96.12;101322.31;4974439;28;20559;-75
2024/01/07 00:32:06;;;;;;;17.83;13.90;;;;;;;1.76;96.11;101321.41;4974343;28;20223;-75
2024/01/07 00:34:32;;;;;;;22.17;14.50;;;;;;;1.80;95.29;101327.34;4974856;28;20246;-75
2024/01/07 00:36:59;;;;;;;25.30;15.13;;;;;;;1.74;95.50;101327.69;4974232;28;20678;-75
2024/01/07 00:39:25;;;;;;;27.20;15.27;;;;;;;1.67;95.47;101329.78;4974268;28;20200;-75
2024/01/07 00:41:52;;;;;;;20.83;12.33;;;;;;;1.68;95.43;101328.00;4974265;28;20194;-75
2024/01/07 00:44:18;;;;;;;21.50;14.03;;;;;;;1.60;95.15;101322.28;4974268;28;20194;-75
2024/01/07 00:46:44;;;;;;;22.37;13.93;;;;;;;1.55;95.22;101329.56;4974669;28;20748;-75
2024/01/07 00:49:14;;;;;;;19.17;13.63;;;;;;;1.64;94.59;101337.84;4974448;28;20190;-75
2024/01/07 00:51:41;;;;;;;29.43;14.43;;;;;;;1.60;94.69;101335.47;4956813;28;20247;-75
2024/01/07 00:54:08;;;;;;;22.20;14.40;;;;;;;1.60;94.93;101341.59;4974127;28;20254;-75
2024/01/07 00:56:34;;;;;;;22.07;14.47;;;;;;;1.58;94.83;101337.31;4956791;28;20193;-75
2024/01/07 00:59:01;;;;;;;24.80;15.03;;;;;;;1.62;94.47;101342.34;4974590;28;20686;-75
2024/01/07 01:01:27;;;;;;;25.07;16.53;;;;;;;1.54;94.48;101347.16;4975804;28;20191;-75
2024/01/07 01:03:54;;;;;;;25.07;15.27;;;;;;;1.51;94.83;101344.69;4977893;28;20654;-75
2024/01/07 01:06:20;;;;;;;25.57;16.40;;;;;;;1.50;95.06;101345.63;4978356;28;20210;-75
2024/01/07 01:08:47;;;;;;;29.37;16.60;;;;;;;1.53;94.95;101355.97;4977761;28;20211;-75
2024/01/07 01:11:13;;;;;;;33.20;17.80;;;;;;;1.57;94.66;101360.16;4960293;28;20268;-75
2024/01/07 01:13:40;;;;;;;31.37;19.00;;;;;;;1.56;94.46;101355.84;4977736;28;20244;-75
2024/01/07 01:16:06;;;;;;;36.03;19.13;;;;;;;1.44;95.01;101359.13;4977681;28;20654;-74
2024/01/07 01:18:33;;;;;;;34.47;18.60;;;;;;;1.45;95.15;101359.94;4978095;28;20701;-74
2024/01/07 01:20:59;;;;;;;35.03;17.53;;;;;;;1.49;95.25;101364.97;4977637;28;20273;-74
2024/01/07 01:23:26;;;;;;;36.60;19.83;;;;;;;1.43;95.49;101369.72;4977552;28;20201;-75
2024/01/07 01:25:52;;;;;;;39.13;19.27;;;;;;;1.50;95.29;101374.59;4960137;28;20193;-75
2024/01/07 01:28:19;;;;;;;31.93;18.20;;;;;;;1.51;95.42;101370.19;4977323;28;20633;-75
2024/01/07 01:30:45;;;;;;;31.93;17.40;;;;;;;1.46;95.67;101380.09;4960115;28;20196;-75
2024/01/07 01:33:12;;;;;;;27.07;17.60;;;;;;;1.51;95.37;101380.72;4977404;28;20191;-75
2024/01/07 01:35:38;;;;;;;33.00;18.47;;;;;;;1.40;95.42;101385.69;4977576;28;20221;-75
2024/01/07 01:38:05;;;;;;;32.83;18.90;;;;;;;1.39;95.64;101384.84;4977256;28;20201;-75
2024/01/07 01:40:31;;;;;;;38.70;17.03;;;;;;;1.37;96.01;101392.81;4977510;28;20601;-75
2024/01/07 01:42:58;;;;;;;32.77;18.57;;;;;;;1.51;95.62;101386.00;4960600;28;20709;-75
2024/01/07 01:45:24;;;;;;;34.80;17.47;;;;;;;1.47;95.74;101395.84;4943962;28;20210;-75
2024/01/07 01:47:51;;;;;;;27.50;17.03;;;;;;;1.46;95.36;101391.50;4976943;28;20690;-75
2024/01/07 01:50:18;;;;;;;29.47;16.33;;;;;;;1.50;95.82;101397.44;4975844;28;20196;-75
2024/01/07 01:52:45;;;;;;;30.63;17.00;;;;;;;1.46;95.18;101401.16;4977582;28;20200;-75
2024/01/07 01:55:12;;;;;;;31.63;17.50;;;;;;;1.40;95.82;101404.94;4977024;28;20186;-75
2024/01/07 01:57:39;;;;;;;29.13;17.90;;;;;;;1.46;95.55;101401.16;4977045;28;20233;-75
2024/01/07 02:00:06;;;;;;;28.20;17.73;;;;;;;1.45;95.41;101402.94;4976913;28;20826;-75
2024/01/07 02:02:34;;;;;;;31.27;17.53;;;;;;;1.41;95.39;101404.03;4977380;28;20272;-75
2024/01/07 02:05:02;;;;;;;25.77;16.60;;;;;;;1.42;95.34;101403.09;4976864;28;20665;-75
2024/01/07 02:07:32;;;;;;;32.50;18.23;;;;;;;1.42;96.01;101399.63;4976658;28;20217;-75
2024/01/07 02:09:59;;;;;;;28.87;17.20;;;;;;;1.48;95.73;101413.34;4959331;28;20217;-75
2024/01/07 02:12:25;;;;;;;32.17;17.80;;;;;;;1.47;95.51;101416.06;4976286;28;20178;-75
2024/01/07 02:14:52;;;;;;;30.03;17.40;;;;;;;1.48;95.94;101410.72;4977161;28;20186;-75
2024/01/07 02:17:19;;;;;;;32.47;19.23;;;;;;;1.49;95.61;101409.75;4976842;28;20206;-75
2024/01/07 02:19:46;;;;;;;35.63;19.17;;;;;;;1.49;95.89;101408.91;4975361;28;20206;-75
2024/01/07 02:22:13;;;;;;;30.73;19.50;;;;;;;1.55;95.93;101411.25;4976799;28;20290;-75
2024/01/07 02:24:39;;;;;;;31.53;18.20;;;;;;;1.53;95.74;101423.66;4976740;28;20190;-75
2024/01/07 02:27:06;;;;;;;36.30;19.50;;;;;;;1.57;95.56;101426.03;4976244;28;20220;-75
2024/01/07 02:29:32;;;;;;;28.10;18.40;;;;;;;1.54;95.59;101423.56;4976418;28;20559;-75
2024/01/07 02:31:59;;;;;;;32.23;18.53;;;;;;;1.53;95.32;101426.31;4976318;28;20196;-75
2024/01/07 02:34:25;;;;;;;37.60;20.00;;;;;;;1.49;95.16;101438.75;4976307;28;20186;-75
2024/01/07 02:36:52;;;;;;;26.37;18.57;;;;;;;1.51;95.16;101439.53;4958807;28;20220;-74
2024/01/07 02:39:18;;;;;;;31.37;18.53;;;;;;;1.54;94.85;101435.88;4976217;28;20197;-75
2024/01/07 02:41:45;;;;;;;31.00;19.27;;;;;;;1.37;94.42;101442.84;4976117;28;20186;-75
2024/01/07 02:44:12;;;;;;;27.00;17.90;;;;;;;1.42;94.57;101439.13;4974861;28;20238;-75
2024/01/07 02:46:39;;;;;;;23.00;16.13;;;;;;;1.39;94.35;101437.53;4975972;28;20214;-75
2024/01/07 02:49:05;;;;;;;26.63;17.93;;;;;;;1.26;94.17;101437.28;4975924;28;20221;-75
2024/01/07 02:51:32;;;;;;;23.17;17.33;;;;;;;1.25;94.75;101440.81;4975940;28;20721;-75
2024/01/07 02:53:59;;;;;;;25.67;17.23;;;;;;;1.31;94.32;101439.69;4958865;28;20280;-75
2024/01/07 02:56:25;;;;;;;23.90;17.23;;;;;;;1.20;94.29;101449.88;4975902;28;20601;-75
2024/01/07 02:58:52;;;;;;;27.33;15.97;;;;;;;1.17;94.54;101447.38;4976077;28;20210;-75
2024/01/07 03:01:22;;;;;;;33.37;18.00;;;;;;;1.18;94.55;101452.59;4976073;28;20593;-75
2024/01/07 03:03:49;;;;;;;37.93;17.73;;;;;;;1.23;94.33;101457.66;4976041;28;20224;-75
2024/01/07 03:06:16;;;;;;;29.97;17.87;;;;;;;1.27;94.39;101457.38;4975948;28;20186;-75
2024/01/07 03:08:43;;;;;;;29.70;18.83;;;;;;;1.25;94.20;101459.25;4975964;28;20674;-75
2024/01/07 03:11:09;;;;;;;33.07;19.33;;;;;;;1.23;94.45;101455.84;4975469;28;20208;-75
2024/01/07 03:13:35;;;;;;;27.20;16.83;;;;;;;1.23;94.19;101463.72;4958193;28;20197;-75
2024/01/07 03:16:02;;;;;;;27.47;18.40;;;;;;;1.24;93.83;101467.22;4976073;28;20233;-75
2024/01/07 03:18:29;;;;;;;28.60;19.17;;;;;;;1.19;93.96;101469.25;4975942;28;20205;-75
2024/01/07 03:20:56;;;;;;;30.50;18.50;;;;;;;1.12;94.02;101480.97;4975674;28;20236;-75
2024/01/07 03:23:23;;;;;;;27.27;17.53;;;;;;;1.15;93.72;101480.81;4975379;28;20197;-75
2024/01/07 03:25:49;;;;;;;28.80;19.03;;;;;;;1.16;93.20;101487.81;4974671;28;20189;-75
2024/01/07 03:28:16;;;;;;;27.60;17.97;;;;;;;1.13;93.25;101480.91;4975472;28;20218;-74
2024/01/07 03:30:42;;;;;;;27.93;17.63;;;;;;;1.13;93.35;101487.97;4975334;28;20557;-75
2024/01/07 03:33:09;;;;;;;22.70;16.20;;;;;;;1.11;93.20;101484.53;4975487;28;20275;-75
2024/01/07 03:35:36;;;;;;;25.97;16.70;;;;;;;1.14;93.31;101487.03;4975163;28;20629;-74
2024/01/07 03:38:03;;;;;;;22.03;16.47;;;;;;;1.15;93.12;101494.00;4975268;28;20213;-74
2024/01/07 03:40:29;;;;;;;27.07;17.97;;;;;;;1.03;93.29;101492.81;4975705;28;20187;-74
2024/01/07 03:42:55;;;;;;;28.20;17.73;;;;;;;1.06;93.40;101499.72;4975035;28;20661;-74
2024/01/07 03:45:22;;;;;;;23.80;16.70;;;;;;;1.13;93.70;101504.63;4975548;28;20229;-74
2024/01/07 03:47:49;;;;;;;26.17;16.90;;;;;;;1.06;93.51;101502.34;4975006;28;20563;-74
2024/01/07 03:50:16;;;;;;;29.90;17.37;;;;;;;1.03;93.37;101505.97;4975099;28;20214;-74
2024/01/07 03:52:42;;;;;;;27.10;18.37;;;;;;;1.19;92.79;101499.03;4975059;28;20197;-75
2024/01/07 03:55:08;;;;;;;25.13;17.17;;;;;;;1.12;92.76;101499.41;4975191;28;20246;-75
2024/01/07 03:57:35;;;;;;;24.80;17.00;;;;;;;1.02;92.66;101500.78;4974685;28;20301;-74
2024/01/07 04:00:02;;;;;;;24.20;16.83;;;;;;;1.08;92.18;101501.34;4974961;28;20202;-74
2024/01/07 04:02:29;;;;;;;27.57;17.10;;;;;;;0.98;92.52;101505.31;4975156;28;20189;-75
2024/01/07 04:04:56;;;;;;;24.17;16.50;;;;;;;0.97;92.22;101505.41;4975391;28;20529;-75
2024/01/07 04:07:22;;;;;;;24.10;16.67;;;;;;;0.93;92.38;101514.38;4975470;28;20272;-74
2024/01/07 04:09:49;;;;;;;23.40;15.10;;;;;;;0.87;92.12;101513.72;4975960;28;20566;-75
2024/01/07 04:12:16;;;;;;;26.00;15.93;;;;;;;0.95;92.00;101512.50;4942041;28;20191;-75
2024/01/07 04:14:43;;;;;;;30.37;17.53;;;;;;;0.85;92.05;101502.41;4975195;28;20182;-75
2024/01/07 04:17:09;;;;;;;25.13;16.67;;;;;;;0.78;92.42;101516.78;4975658;28;20276;-75
2024/01/07 04:19:38;;;;;;;23.40;15.30;;;;;;;0.88;92.17;101518.09;4975174;28;20185;-75
2024/01/07 04:22:04;;;;;;;25.60;16.43;;;;;;;0.87;91.85;101519.00;4974797;28;20689;-75
2024/01/07 04:24:31;;;;;;;25.10;17.73;;;;;;;0.84;91.47;101521.78;4974950;28;20181;-75
2024/01/07 04:26:58;;;;;;;27.40;16.60;;;;;;;0.86;91.70;101533.06;4974578;28;20174;-75
2024/01/07 04:29:24;;;;;;;25.20;16.43;;;;;;;0.86;91.95;101529.59;4974740;28;20194;-75
2024/01/07 04:31:50;;;;;;;30.53;17.33;;;;;;;0.87;91.46;101526.03;4957106;28;20726;-75
2024/01/07 04:34:17;;;;;;;27.90;17.73;;;;;;;0.83;91.41;101533.22;4974355;28;20225;-75
2024/01/07 04:36:44;;;;;;;24.20;17.07;;;;;;;0.78;91.55;101532.56;4977287;28;20648;-75
2024/01/07 04:39:10;;;;;;;29.63;18.10;;;;;;;0.83;91.18;101538.50;4978629;28;20202;-75
2024/01/07 04:41:37;;;;;;;27.43;15.63;;;;;;;0.80;91.82;101533.38;4961217;28;20186;-75
2024/01/07 04:44:04;;;;;;;19.70;15.23;;;;;;;0.74;91.51;101545.94;4978490;28;20201;-75
2024/01/07 04:46:34;;;;;;;25.17;16.40;;;;;;;0.77;91.53;101543.16;4960922;28;20248;-74
2024/01/07 04:49:00;;;;;;;26.70;16.93;;;;;;;0.70;91.40;101547.84;4978694;28;20702;-74
2024/01/07 04:51:27;;;;;;;30.60;17.27;;;;;;;0.72;91.31;101556.53;4978327;28;20200;-74
2024/01/07 04:53:54;;;;;;;30.70;17.80;;;;;;;0.72;91.69;101546.00;4979058;28;20212;-74
2024/01/07 04:56:20;;;;;;;25.47;16.37;;;;;;;0.77;91.30;101546.66;4978279;28;20185;-74
2024/01/07 04:58:47;;;;;;;24.60;16.17;;;;;;;0.78;91.73;101544.88;4978251;28;20217;-74
2024/01/07 05:01:13;;;;;;;28.77;18.70;;;;;;;0.86;91.33;101551.50;4978291;28;20194;-74
2024/01/07 05:03:40;;;;;;;25.27;17.97;;;;;;;0.83;91.60;101553.44;4978226;28;20197;-74
2024/01/07 05:06:10;;;;;;;24.63;16.07;;;;;;;0.77;91.41;101556.31;4978144;28;20189;-75
2024/01/07 05:08:37;;;;;;;25.57;16.50;;;;;;;0.75;91.54;101561.66;4978030;28;20217;-75
2024/01/07 05:11:04;;;;;;;34.37;17.57;;;;;;;0.78;91.72;101564.16;4977908;28;20249;-75
2024/01/07 05:13:31;;;;;;;28.70;17.03;;;;;;;0.76;91.52;101563.38;4978352;28;20521;-75
2024/01/07 05:15:57;;;;;;;27.67;17.63;;;;;;;0.73;91.33;101570.53;4977736;28;20190;-75
2024/01/07 05:18:24;;;;;;;25.60;16.97;;;;;;;0.84;91.02;101573.56;4977739;28;20210;-75
2024/01/07 05:20:51;;;;;;;29.83;18.53;;;;;;;0.78;91.24;101574.69;4977692;28;20182;-75
2024/01/07 05:23:18;;;;;;;27.30;18.27;;;;;;;0.80;91.56;101577.25;4977665;28;20181;-75
2024/01/07 05:25:45;;;;;;;29.77;17.07;;;;;;;0.77;91.07;101580.88;4960179;28;20223;-75
2024/01/07 05:28:13;;;;;;;39.67;18.93;;;;;;;0.63;91.29;101588.53;4977417;28;20687;-75
2024/01/07 05:30:41;;;;;;;29.33;18.67;;;;;;;0.63;91.37;101583.28;4977755;28;20210;-75
2024/01/07 05:33:07;;;;;;;27.13;18.40;;;;;;;0.69;91.21;101582.97;4977519;28;20170;-75
2024/01/07 05:35:34;;;;;;;27.80;18.03;;;;;;;0.62;91.22;101588.59;4960072;28;20202;-75
2024/01/07 05:38:01;;;;;;;27.37;18.17;;;;;;;0.61;91.39;101595.63;4977565;28;20198;-74
2024/01/07 05:40:27;;;;;;;28.47;18.77;;;;;;;0.60;91.03;101601.81;4977270;28;20244;-74
2024/01/07 05:42:54;;;;;;;25.90;17.87;;;;;;;0.73;90.96;101608.25;4977229;28;20662;-74
2024/01/07 05:45:20;;;;;;;26.87;18.10;;;;;;;0.58;91.28;101608.91;4977758;28;20589;-74
2024/01/07 05:47:47;;;;;;;31.03;18.30;;;;;;;0.65;91.21;101601.59;4975925;28;20218;-74
2024/01/07 05:50:15;;;;;;;27.03;17.77;;;;;;;0.57;91.08;101617.72;4977416;28;20597;-74
2024/01/07 05:52:42;;;;;;;31.03;18.07;;;;;;;0.58;91.19;101621.22;4977137;28;20624;-74
2024/01/07 05:55:08;;;;;;;34.13;19.43;;;;;;;0.59;91.22;101621.16;4977563;28;20589;-74
2024/01/07 05:57:35;;;;;;;27.07;18.60;;;;;;;0.61;91.05;101629.81;4976858;28;20218;-74
2024/01/07 06:00:02;;;;;;;31.60;19.47;;;;;;;0.57;91.16;101630.03;4977736;28;20611;-74
2024/01/07 06:02:39;;;;;;;31.87;18.80;;;;;;;0.56;90.91;101634.44;4977224;28;20178;-74
2024/01/07 06:05:06;;;;;;;29.40;18.10;;;;;;;0.65;90.85;101634.03;4976849;28;20269;-74
2024/01/07 06:07:32;;;;;;;30.93;17.73;;;;;;;0.69;90.35;101640.00;4976821;28;20309;-74
2024/01/07 06:10:00;;;;;;;27.13;19.17;;;;;;;0.54;90.76;101638.06;4976843;28;20220;-74
2024/01/07 06:12:26;;;;;;;28.90;18.23;;;;;;;0.54;90.68;101646.81;4977001;28;20541;-74
2024/01/07 06:14:53;;;;;;;28.37;18.20;;;;;;;0.60;90.73;101648.31;4976683;28;20202;-74
2024/01/07 06:17:19;;;;;;;26.07;16.77;;;;;;;0.65;90.40;101659.50;4976807;28;20218;-74
2024/01/07 06:19:45;;;;;;;25.37;17.87;;;;;;;0.65;90.14;101652.44;4977058;28;20197;-74
2024/01/07 06:22:12;;;;;;;28.77;18.17;;;;;;;0.57;90.53;101661.59;4976531;28;20192;-74
2024/01/07 06:24:38;;;;;;;30.30;17.93;;;;;;;0.56;90.13;101659.88;4976983;28;20669;-74
2024/01/07 06:27:05;;;;;;;29.77;18.07;;;;;;;0.58;90.21;101671.19;4976599;28;20186;-74
2024/01/07 06:29:31;;;;;;;26.00;17.87;;;;;;;0.57;90.00;101674.75;4976299;28;20681;-74
2024/01/07 06:31:58;;;;;;;27.97;17.50;;;;;;;0.55;89.62;101673.97;4976343;28;20213;-74
2024/01/07 06:34:24;;;;;;;27.97;18.07;;;;;;;0.58;89.77;101681.72;4976532;28;20201;-74
2024/01/07 06:36:52;;;;;;;29.33;18.97;;;;;;;0.47;89.94;101679.53;4976427;28;20189;-74
2024/01/07 06:39:18;;;;;;;28.07;18.00;;;;;;;0.46;90.14;101683.09;4976447;28;20672;-74
2024/01/07 06:41:44;;;;;;;30.97;18.23;;;;;;;0.45;90.62;101678.75;4976209;28;20193;-74
2024/01/07 06:44:12;;;;;;;30.63;19.67;;;;;;;0.50;90.67;101684.69;4976398;28;20249;-74
2024/01/07 06:46:38;;;;;;;27.63;17.87;;;;;;;0.40;90.79;101692.09;4976621;28;20244;-74
2024/01/07 06:49:04;;;;;;;24.43;16.93;;;;;;;0.45;89.77;101705.06;4975914;28;20237;-74
2024/01/07 06:51:31;;;;;;;26.53;17.57;;;;;;;0.39;89.01;101700.91;4975974;28;20194;-74
2024/01/07 06:53:58;;;;;;;27.67;17.17;;;;;;;0.39;88.32;101705.31;4975919;28;20194;-74
2024/01/07 06:56:24;;;;;;;21.40;14.80;;;;;;;0.44;88.10;101708.59;4975869;28;20193;-74
2024/01/07 06:58:51;;;;;;;22.83;15.80;;;;;;;0.33;88.85;101710.81;4975608;28;20206;-74
2024/01/07 07:01:20;;;;;;;25.10;16.07;;;;;;;0.34;88.84;101713.38;4975774;28;20201;-74
2024/01/07 07:03:47;;;;;;;26.37;17.40;;;;;;;0.35;88.42;101717.72;4975743;28;20232;-74
2024/01/07 07:06:13;;;;;;;24.57;16.43;;;;;;;0.39;88.59;101727.19;4975737;28;20189;-74
2024/01/07 07:08:40;;;;;;;22.00;15.73;;;;;;;0.39;88.98;101723.72;4976071;28;20661;-74
2024/01/07 07:11:07;;;;;;;23.30;16.47;;;;;;;0.35;88.80;101720.34;4975709;28;20245;-74
2024/01/07 07:13:33;;;;;;;23.03;17.23;;;;;;;0.37;88.82;101728.19;4975877;28;20190;-74
2024/01/07 07:16:00;;;;;;;27.67;17.87;;;;;;;0.38;89.09;101736.00;4976075;28;20194;-74
2024/01/07 07:18:26;;;;;;;24.53;17.83;;;;;;;0.40;89.16;101743.84;4975679;28;20210;-74
2024/01/07 07:20:53;;;;;;;26.57;18.07;;;;;;;0.42;89.78;101742.03;4975687;28;20204;-74
2024/01/07 07:23:19;;;;;;;27.00;18.37;;;;;;;0.37;89.77;101750.09;4975363;28;20194;-74
2024/01/07 07:25:46;;;;;;;30.13;18.37;;;;;;;0.29;89.83;101751.31;4975589;28;20190;-74
2024/01/07 07:28:12;;;;;;;23.37;16.13;;;;;;;0.40;89.59;101754.38;4975095;28;20673;-74
2024/01/07 07:30:39;;;;;;;23.13;15.83;;;;;;;0.40;90.19;101759.63;4975257;28;20747;-74
2024/01/07 07:33:05;;;;;;;22.53;16.43;;;;;;;0.41;89.97;101762.22;4975204;28;20654;-74
2024/01/07 07:35:32;;;;;;;29.53;17.10;;;;;;;0.40;88.75;101759.63;4975180;28;20653;-74
2024/01/07 07:37:58;;;;;;;21.53;15.07;;;;;;;0.50;89.08;101770.63;4975304;28;20261;-74
2024/01/07 07:40:25;;;;;;;26.90;15.47;;;;;;;0.41;88.77;101772.72;4975329;28;20198;-74
2024/01/07 07:42:51;;;;;;;22.83;14.90;;;;;;;0.30;88.79;101777.53;4975287;28;20283;-74
2024/01/07 07:45:18;;;;;;;21.17;16.07;;;;;;;0.19;88.40;101786.78;4958124;28;20193;-74
2024/01/07 07:47:45;;;;;;;22.30;15.93;;;;;;;0.23;88.75;101796.25;4975173;28;20213;-74
2024/01/07 07:50:12;;;;;;;18.90;15.47;;;;;;;0.22;88.62;101802.41;4975200;28;20198;-75
2024/01/07 07:52:39;;;;;;;24.47;16.23;;;;;;;0.19;88.24;101808.66;4974888;28;20244;-75
2024/01/07 07:55:06;;;;;;;22.53;15.80;;;;;;;0.19;88.50;101815.69;4974814;28;20245;-75
2024/01/07 07:57:33;;;;;;;21.93;16.07;;;;;;;0.10;88.44;101816.91;4974698;28;20241;-74
2024/01/07 08:00:00;;;;;;;22.30;14.97;;;;;;;0.07;89.45;101822.28;4975349;28;20293;-74
2024/01/07 08:02:30;;;;;;;23.17;15.40;;;;;;;0.13;89.14;101829.09;4974815;28;20251;-74
2024/01/07 08:04:57;;;;;;;27.17;17.53;;;;;;;0.07;89.37;101830.19;4974660;28;20186;-74
2024/01/07 08:07:23;;;;;;;24.77;16.00;;;;;;;0.13;89.42;101836.97;4974634;28;20296;-74
2024/01/07 08:09:50;;;;;;;19.03;15.10;;;;;;;0.10;88.76;101837.94;4974421;28;20290;-74
2024/01/07 08:12:16;;;;;;;23.77;15.83;;;;;;;0.14;88.61;101841.31;4974151;28;20237;-74
2024/01/07 08:14:43;;;;;;;29.37;16.60;;;;;;;0.07;88.67;101840.69;4974505;28;20532;-74
2024/01/07 08:17:09;;;;;;;26.87;17.27;;;;;;;0.03;87.42;101846.97;4974841;28;20233;-74
2024/01/07 08:19:36;;;;;;;28.37;16.60;;;;;;;0.08;87.67;101845.03;4974955;28;20196;-74
2024/01/07 08:22:03;;;;;;;24.80;15.70;;;;;;;0.04;87.07;101853.97;4974753;28;20201;-74
2024/01/07 08:24:29;;;;;;;24.00;15.53;;;;;;;0.03;87.08;101862.75;4974405;28;20193;-74
2024/01/07 08:26:56;;;;;;;22.27;15.90;;;;;;;0.15;86.64;101861.44;4956993;28;20304;-74
2024/01/07 08:29:22;;;;;;;22.87;16.10;;;;;;;0.12;87.03;101857.16;4974277;28;20208;-74
2024/01/07 08:31:49;;;;;;;28.90;16.33;;;;;;;0.10;86.64;101855.47;4974872;28;20190;-74
2024/01/07 08:34:15;;;;;;;21.87;16.07;;;;;;;0.11;87.41;101862.47;4974636;28;20178;-74
2024/01/07 08:36:42;;;;;;;30.17;17.00;;;;;;;0.16;86.89;101871.91;4974571;28;20204;-74
2024/01/07 08:39:09;;;;;;;27.60;18.07;;;;;;;0.18;86.67;101872.69;4974221;28;20202;-74
2024/01/07 08:41:35;;;;;;;23.57;15.87;;;;;;;0.12;87.21;101866.81;4974780;28;20542;-74
2024/01/07 08:44:02;;;;;;;22.00;16.77;;;;;;;0.13;86.52;101873.78;4974224;28;20214;-74
2024/01/07 08:46:28;;;;;;;22.30;15.83;;;;;;;0.09;86.64;101873.03;4956924;28;20197;-75
2024/01/07 08:48:55;;;;;;;35.30;17.30;;;;;;;0.10;86.75;101880.00;4974148;28;20303;-74
2024/01/07 08:51:21;;;;;;;21.43;15.57;;;;;;;0.13;86.30;101892.19;4974424;28;20186;-74
2024/01/07 08:53:48;;;;;;;23.17;15.43;;;;;;;0.18;86.36;101895.47;4974636;28;20188;-74
2024/01/07 08:56:15;;;;;;;21.30;15.90;;;;;;;0.21;85.95;101903.28;4974397;28;20205;-74
2024/01/07 08:58:42;;;;;;;19.53;15.23;;;;;;;0.17;86.24;101904.31;4974140;28;20732;-74
2024/01/07 09:01:08;;;;;;;18.77;15.33;;;;;;;0.26;85.95;101906.56;4974054;28;20192;-74
2024/01/07 09:03:35;;;;;;;24.73;14.97;;;;;;;0.23;85.79;101911.94;4974572;28;20201;-74
2024/01/07 09:06:02;;;;;;;22.30;15.20;;;;;;;0.18;85.70;101909.50;4974015;28;20202;-74
2024/01/07 09:08:29;;;;;;;18.10;14.23;;;;;;;0.08;85.80;101909.91;4974157;28;20214;-74
2024/01/07 09:10:55;;;;;;;19.63;14.33;;;;;;;0.09;85.86;101914.22;4974035;28;20617;-74
2024/01/07 09:13:21;;;;;;;25.77;13.73;;;;;;;0.04;85.49;101918.81;4974512;28;20312;-74
2024/01/07 09:15:48;;;;;;;19.20;13.93;;;;;;;0.02;86.10;101913.59;4973953;28;20597;-74
2024/01/07 09:18:14;;;;;;;20.83;14.77;;;;;;;-0.03;86.06;101924.28;4973868;28;20209;-75
2024/01/07 09:20:41;;;;;;;18.33;14.13;;;;;;;-0.04;86.32;101927.81;4973760;28;20246;-75
2024/01/07 09:23:08;;;;;;;19.90;14.60;;;;;;;-0.08;86.52;101926.22;4976911;28;20203;-75
2024/01/07 09:25:34;;;;;;;18.07;14.70;;;;;;;-0.03;86.25;101926.03;4978085;28;20189;-75
2024/01/07 09:28:00;;;;;;;19.33;14.13;;;;;;;-0.10;86.60;101946.44;4977477;28;20217;-75
2024/01/07 09:30:27;;;;;;;18.57;14.27;;;;;;;-0.11;86.85;101949.13;4977333;28;20225;-75
2024/01/07 09:32:54;;;;;;;21.60;15.00;;;;;;;-0.12;87.07;101945.63;4977898;28;20241;-74
2024/01/07 09:35:20;;;;;;;19.90;14.23;;;;;;;-0.01;86.42;101948.75;4977570;28;20229;-74
2024/01/07 09:37:47;;;;;;;19.80;14.27;;;;;;;-0.07;86.11;101955.97;4977807;28;20272;-74
2024/01/07 09:40:18;;;;;;;18.63;14.00;;;;;;;0.00;85.84;101949.63;4977273;28;20635;-74
2024/01/07 09:42:45;;;;;;;17.37;13.67;;;;;;;-0.10;86.22;101959.59;4977600;28;20180;-74
2024/01/07 09:45:13;;;;;;;20.07;13.67;;;;;;;-0.02;86.17;101964.56;4977507;28;20174;-74
2024/01/07 09:47:43;;;;;;;23.37;14.40;;;;;;;-0.07;85.95;101961.25;4977351;28;20206;-74
2024/01/07 09:50:11;;;;;;;19.47;13.70;;;;;;;-0.11;85.46;101971.00;4977006;28;20200;-74
2024/01/07 09:52:44;;;;;;;18.03;13.23;;;;;;;-0.15;85.70;101958.03;4977062;28;20186;-74
2024/01/07 09:55:18;;;;;;;16.63;14.20;;;;;;;-0.18;85.50;101968.66;4977259;28;20186;-74
2024/01/07 09:57:45;;;;;;;14.83;12.57;;;;;;;-0.10;85.06;101962.22;4977083;28;20220;-74
2024/01/07 10:00:13;;;;;;;17.57;12.87;;;;;;;-0.10;85.12;101964.84;4977198;28;20184;-74
2024/01/07 10:02:43;;;;;;;17.77;12.63;;;;;;;-0.05;84.99;101981.31;4976865;28;20546;-74
2024/01/07 10:05:09;;;;;;;12.67;11.37;;;;;;;-0.10;85.12;101975.34;4976781;28;20583;-74
2024/01/07 10:07:36;;;;;;;14.83;11.67;;;;;;;-0.07;84.77;101977.88;4976879;28;20216;-74
2024/01/07 10:10:16;;;;;;;17.47;12.40;;;;;;;-0.09;83.69;101974.44;4976852;28;20218;-74
2024/01/07 10:12:44;;;;;;;12.97;11.57;;;;;;;-0.08;83.38;101980.53;4977023;28;20631;-74
2024/01/07 10:15:11;;;;;;;16.33;12.53;;;;;;;-0.07;83.04;101977.88;4976871;28;20208;-74
2024/01/07 10:17:39;;;;;;;18.80;11.50;;;;;;;-0.02;83.34;101978.56;4976510;28;20264;-74
2024/01/07 10:20:09;;;;;;;14.77;11.07;;;;;;;0.00;84.08;101983.78;4976472;28;20197;-74
2024/01/07 10:22:39;;;;;;;11.20;10.20;;;;;;;-0.02;83.04;101980.34;4976794;28;20585;-74
2024/01/07 10:25:06;;;;;;;12.43;10.23;;;;;;;-0.11;83.00;101984.16;4977018;28;20247;-74
2024/01/07 10:27:36;;;;;;;13.50;10.00;;;;;;;-0.12;83.19;101992.06;4976319;28;20216;-74
2024/01/07 10:30:03;;;;;;;14.73;11.10;;;;;;;-0.05;82.10;101983.09;4976503;28;20198;-74
2024/01/07 10:32:30;;;;;;;13.23;9.83;;;;;;;-0.03;82.08;101994.38;4958796;28;20200;-74
2024/01/07 10:35:03;;;;;;;11.63;10.03;;;;;;;-0.07;81.58;101995.41;4975652;28;20185;-74
2024/01/07 10:37:30;;;;;;;12.40;9.80;;;;;;;-0.04;81.70;101996.16;4976660;28;20680;-74
2024/01/07 10:40:02;;;;;;;11.73;10.77;;;;;;;-0.12;80.63;101989.44;4976417;28;20724;-74
2024/01/07 10:42:32;;;;;;;10.57;8.90;;;;;;;-0.10;81.49;101983.25;4976398;28;20639;-74
2024/01/07 10:45:00;;;;;;;9.70;8.80;;;;;;;-0.02;80.52;101996.13;4976667;28;20180;-74
2024/01/07 10:47:31;;;;;;;12.07;8.93;;;;;;;-0.04;80.93;101990.91;4976230;28;20721;-74
2024/01/07 10:49:59;;;;;;;10.87;9.50;;;;;;;-0.14;80.62;101994.78;4976480;28;20209;-74
2024/01/07 10:52:27;;;;;;;11.23;10.20;;;;;;;-0.13;80.98;101993.00;4976194;28;20277;-74
2024/01/07 10:54:57;;;;;;;9.50;8.80;;;;;;;-0.09;81.33;101995.47;4976385;28;20664;-74
2024/01/07 10:57:30;;;;;;;10.40;9.47;;;;;;;-0.12;80.19;101995.56;4976397;28;20618;-73
2024/01/07 10:59:58;;;;;;;10.07;9.27;;;;;;;-0.08;79.82;101999.81;4976152;28;20406;-74
2024/01/07 11:02:26;;;;;;;10.03;8.87;;;;;;;-0.13;80.43;101999.09;4975773;28;20233;-74
2024/01/07 11:05:15;;;;;;;9.03;8.37;;;;;;;-0.12;79.98;102006.06;4975713;28;20246;-74
2024/01/07 11:07:50;;;;;;;9.47;8.63;;;;;;;-0.09;78.93;102005.13;4975878;28;20210;-74
2024/01/07 11:10:22;;;;;;;9.10;8.40;;;;;;;-0.17;78.96;102009.78;4975682;28;20272;-74
2024/01/07 11:12:55;;;;;;;11.73;9.03;;;;;;;-0.10;78.92;102009.53;4975878;28;20185;-74
2024/01/07 11:15:51;;;;;;;8.80;8.00;;;;;;;-0.09;78.06;102010.38;4976054;28;20204;-74